This is the latest recevied weather packets stored in our database for station/object DC0VZ-6. If no packets are shown the sender has not sent any weather packets the latest 1 day(s).
| Time | Temp. | Humidity | Pressure | Rain* | Wind** | Luminosity | Snow |
|---|---|---|---|---|---|---|---|
| 1836274744 | 11.11° C | 49% | 985.6 hPa | 0 mm | 0 m/s | - | - |
| 1836274144 | 11.11° C | 49% | 986 hPa | 0 mm | 0 m/s | - | - |
| 1778008572 | 13.89° C | 52% | 975.4 hPa | 0 mm | 0 m/s | - | - |
| 1778007972 | 14.44° C | 51% | 975.4 hPa | 0 mm | 0 m/s | - | - |
| 1778007372 | 14.44° C | 51% | 975.4 hPa | 0 mm | 0 m/s | - | - |
| 1778006772 | 14.44° C | 51% | 975.4 hPa | 0 mm | 0 m/s | - | - |
| 1778006172 | 15° C | 51% | 975.5 hPa | 0 mm | 0 m/s | - | - |
| 1778005571 | 15° C | 51% | 975.5 hPa | 0 mm | 0 m/s | - | - |
| 1778004972 | 15° C | 51% | 975.6 hPa | 0 mm | 0 m/s | - | - |
| 1778004371 | 15° C | 51% | 975.6 hPa | 0 mm | 0 m/s | - | - |
| 1778003771 | 15.56° C | 50% | 975.6 hPa | 0 mm | 0 m/s | - | - |
| 1778003171 | 15.56° C | 50% | 975.6 hPa | 0 mm | 0 m/s | - | - |
| 1778002571 | 15.56° C | 50% | 975.4 hPa | 0 mm | 0 m/s | - | - |
| 1778001971 | 15.56° C | 50% | 975.4 hPa | 0 mm | 0 m/s | - | - |
| 1778001371 | 16.11° C | 49% | 975.2 hPa | 0 mm | 0 m/s | - | - |
| 1778000771 | 16.11° C | 49% | 975.2 hPa | 0 mm | 0 m/s | - | - |
| 1778000170 | 16.11° C | 49% | 975.5 hPa | 0 mm | 0 m/s | - | - |
| 1777999571 | 16.11° C | 49% | 975.5 hPa | 0 mm | 0 m/s | - | - |
| 1777998971 | 16.11° C | 49% | 975.6 hPa | 0 mm | 0 m/s | - | - |
| 1777998370 | 16.11° C | 49% | 975.6 hPa | 0 mm | 0 m/s | - | - |
| 1777997770 | 16.67° C | 49% | 975.8 hPa | 0 mm | 0 m/s | - | - |
| 1777997170 | 16.67° C | 49% | 975.8 hPa | 0 mm | 0 m/s | - | - |
| 1777996570 | 16.11° C | 49% | 975.8 hPa | 0 mm | 0 m/s | - | - |
| 1777995970 | 16.11° C | 49% | 975.8 hPa | 0 mm | 0 m/s | - | - |
| 1777995370 | 16.11° C | 49% | 976.1 hPa | 0 mm | 0 m/s | - | - |
* Rain latest hour (hover to see other rain measurements)
** Current wind speed in m/s (hover to see current wind gust speed)